SHMÚ vydal meteorologické výstrahy na WindStorm Display warnings

SHMÚ vydal hydrologické výstrahy na   Prívalová povodeň Display warnings

METAR

Aeronautical MET Report METAR

METAR description (Slovak)

06.07.2020 - 17:00 UTC

METAR LZIB 061700Z 36012KT 330V030 CAVOK 24/15 Q1009 WS ALL RWY
NOSIG=
METAR LZKZ 061700Z 24005KT CAVOK 27/18 Q1007=
METAR LZPP 061700Z 01011KT 9999 FEW040 BKN100 22/15 Q1010=
METAR LZSL 061700Z 32014KT 9999 SCT055 SCT090 25/14 Q1009=
METAR LZTT 061700Z 34005KT 300V020 9999 FEW053 25/14 Q1009=
METAR LZZI 061700Z 05006KT 9999 FEW028 SCT065 BKN100 21/17 Q1010=

06.07.2020 - 16:30 UTC

METAR LZIB 061630Z 01011KT CAVOK 24/16 Q1010 WS ALL RWY NOSIG=
METAR LZKZ 061630Z 24008KT CAVOK 28/17 Q1007=
METAR LZPP 061630Z 35014KT 9999 FEW040 BKN090 23/15 Q1010=
METAR LZSL 061630Z 27013KT 9999 FEW063 28/16 Q1008=
METAR LZTT 061630Z 02006KT 330V100 9999 FEW053 26/12 Q1009=
METAR LZZI 061630Z 05004KT 340V080 9999 FEW027 SCT064 BKN090 21/16
Q1011=

06.07.2020 - 17:00 UTC

METAR LZMC 061700Z 01008KT CAVOK 22/13 Q1011=
METAR LZPW 061700Z 08012KT 6000 -RA SCT013 FEW020CB
BKN035 20/18 Q1008=

 

 

skok na menu ↑


skok na začiatok stránky ↑